»·PEaware :: EJA220 KRIL-KHCR

EJA220 :: KRIL-KHCR

FLIGHT INFORMATION

Flight Status: Arrived
Operator:
Netjets Aviation
More flights by this operator :: More flights under this callsign
Pilot: Ethan S. (29221)
Aircraft: CANADAIR CL-600 CHALLENGER
(CL60)
More flights by this aircraft type
Origin: KRIL Rifle Garfield County Airport
United States
Destination: KHCR Heber Valley
United States
More flights between these airports :: More routes between these airports
Route: SQUAT5 SQUAT MTU
File this flight plan on PilotEdge
Remarks:
Altitude:
(Current/Filed)
26,000ft
Speed:
(Current/Filed)
465kts
Departed: 17-Nov-23 07:05 PM
Arrived: 17-Nov-23 07:39 PM
Distance/Time
Traveled:
180nm/0:33
Distance/Time
To Go:
Arrived

Flight Plot

Page will automatically refresh every two minutes.

Flight plan parsing failed; only flown route is shown


Map Options




Map Legend


Flown Route
Filed Route
Departure Airport
Arrival Airport
Navaid (VOR, NDB)
Fix

Horizontal Profiles

Position Reports

Time Latitude Longitude Heading Altitude Ground
Speed
17-Nov-23 18:38 39.523723 -107.723708 182 5520ft 0kts
17-Nov-23 18:39 39.523723 -107.723708 182 5520ft 0kts
17-Nov-23 18:40 39.523723 -107.723708 182 5520ft 0kts
17-Nov-23 18:42 39.523723 -107.723709 182 5520ft 0kts
17-Nov-23 18:43 39.523723 -107.723709 182 5520ft 0kts
17-Nov-23 18:44 39.523723 -107.723709 182 5520ft 0kts
17-Nov-23 18:45 39.523723 -107.723709 182 5520ft 0kts
17-Nov-23 18:45 39.523723 -107.723709 182 5520ft 0kts
17-Nov-23 18:47 39.523723 -107.723709 182 5520ft 0kts
17-Nov-23 18:48 39.523723 -107.723709 182 5520ft 0kts
17-Nov-23 18:49 39.523723 -107.723709 182 5520ft 0kts
17-Nov-23 18:50 39.523723 -107.723709 182 5520ft 0kts
17-Nov-23 18:50 39.523723 -107.723709 182 5520ft 0kts
17-Nov-23 18:51 39.523723 -107.723709 182 5520ft 0kts
17-Nov-23 18:53 39.523723 -107.723709 182 5520ft 0kts
17-Nov-23 18:54 39.523723 -107.723709 182 5520ft 0kts
17-Nov-23 18:55 39.523723 -107.723709 182 5520ft 0kts
17-Nov-23 18:56 39.523723 -107.723709 182 5520ft 0kts
17-Nov-23 18:56 39.523723 -107.723709 182 5520ft 0kts
17-Nov-23 18:57 39.523723 -107.723709 182 5520ft 0kts
17-Nov-23 18:58 39.523723 -107.723709 182 5520ft 0kts
17-Nov-23 18:59 39.523723 -107.723709 182 5520ft 0kts
17-Nov-23 19:01 39.524379 -107.724944 1 5516ft 5kts
17-Nov-23 19:01 39.525587 -107.724243 88 5519ft 7kts
17-Nov-23 19:02 39.525718 -107.717921 88 5537ft 11kts
17-Nov-23 19:03 39.525896 -107.715726 26 5540ft 3kts
17-Nov-23 19:04 39.526557 -107.730303 268 5551ft 160kts
17-Nov-23 19:05 39.524958 -107.811623 266 8569ft 282kts
17-Nov-23 19:06 39.497282 -107.909077 242 12903ft 312kts
17-Nov-23 19:07 39.456748 -108.011967 243 17265ft 332kts
17-Nov-23 19:08 39.395591 -108.103052 230 21343ft 343kts
17-Nov-23 19:09 39.332530 -108.196378 245 24752ft 348kts
17-Nov-23 19:10 39.352273 -108.317988 295 26424ft 399kts
17-Nov-23 19:11 39.409297 -108.441929 294 26475ft 397kts
17-Nov-23 19:12 39.464978 -108.565149 294 26491ft 396kts
17-Nov-23 19:13 39.520555 -108.689042 294 26448ft 398kts
17-Nov-23 19:14 39.575924 -108.813058 294 26441ft 397kts
17-Nov-23 19:15 39.631347 -108.937723 294 26436ft 398kts
17-Nov-23 19:16 39.686403 -109.062110 294 26421ft 397kts
17-Nov-23 19:17 39.741611 -109.187488 294 26396ft 399kts
17-Nov-23 19:18 39.796545 -109.312755 293 26405ft 398kts
17-Nov-23 19:19 39.851776 -109.439042 293 26409ft 401kts
17-Nov-23 19:20 39.906775 -109.565354 294 26389ft 400kts
17-Nov-23 19:21 39.961824 -109.692304 293 26391ft 402kts
17-Nov-23 19:22 40.016776 -109.819465 293 26369ft 400kts
17-Nov-23 19:23 40.071394 -109.946409 293 26366ft 403kts
17-Nov-23 19:24 40.126225 -110.074370 293 26232ft 402kts
17-Nov-23 19:25 40.167642 -110.201612 285 24251ft 363kts
17-Nov-23 19:26 40.200214 -110.324187 284 22365ft 356kts
17-Nov-23 19:27 40.231936 -110.445714 285 20822ft 351kts
17-Nov-23 19:28 40.263455 -110.567579 285 19811ft 350kts
17-Nov-23 19:29 40.294379 -110.687748 285 18804ft 347kts
17-Nov-23 19:30 40.324952 -110.807236 285 17789ft 344kts
17-Nov-23 19:31 40.355119 -110.925728 285 16793ft 339kts
17-Nov-23 19:32 40.384831 -111.042821 285 15743ft 335kts
17-Nov-23 19:33 40.418467 -111.146545 309 14236ft 297kts
17-Nov-23 19:34 40.475460 -111.225176 310 11690ft 288kts
17-Nov-23 19:35 40.516501 -111.301029 294 10533ft 213kts
17-Nov-23 19:36 40.521715 -111.364872 236 7912ft 184kts
17-Nov-23 19:37 40.492083 -111.412932 231 5832ft 150kts
17-Nov-23 19:38 40.479767 -111.430806 100 5615ft 10kts

Navigation Log

Ident Type
Flight plan parsing failed, navigation log unavailable